createdAt,value
2022-08-28T00:01:29.005Z,100.00
2022-08-28T00:03:56.647Z,100.00
2022-08-28T00:06:26.708Z,100.00
2022-08-28T00:08:54.907Z,100.00
2022-08-28T00:11:22.494Z,100.00
2022-08-28T00:13:51.070Z,100.00
2022-08-28T00:16:18.976Z,100.00
2022-08-28T00:18:47.055Z,100.00
2022-08-28T00:21:15.365Z,100.00
2022-08-28T00:23:44.682Z,100.00
2022-08-28T00:26:12.706Z,100.00
2022-08-28T00:28:40.486Z,100.00
2022-08-28T00:31:07.664Z,100.00
2022-08-28T00:33:36.195Z,100.00
2022-08-28T00:36:04.781Z,100.00
2022-08-28T00:38:33.198Z,100.00
2022-08-28T00:41:04.035Z,100.00
2022-08-28T00:43:37.474Z,100.00
2022-08-28T00:46:07.947Z,100.00
2022-08-28T00:48:35.293Z,100.00
2022-08-28T00:51:04.814Z,100.00
2022-08-28T00:53:33.028Z,100.00
2022-08-28T00:56:07.061Z,100.00
2022-08-28T00:58:43.985Z,100.00
2022-08-28T01:01:13.595Z,100.00
2022-08-28T01:03:41.641Z,100.00
2022-08-28T01:06:09.737Z,100.00
2022-08-28T01:08:41.235Z,100.00
2022-08-28T01:11:11.529Z,100.00
2022-08-28T01:13:41.604Z,100.00
2022-08-28T01:16:10.409Z,100.00
2022-08-28T01:18:38.527Z,100.00
2022-08-28T01:21:16.889Z,100.00
2022-08-28T01:23:55.654Z,100.00
2022-08-28T01:26:23.196Z,100.00
2022-08-28T01:28:51.367Z,100.00
2022-08-28T01:31:19.363Z,100.00
2022-08-28T01:33:48.330Z,100.00
2022-08-28T01:36:17.785Z,100.00
2022-08-28T01:38:49.391Z,100.00
2022-08-28T01:41:19.239Z,100.00
2022-08-28T01:43:46.743Z,100.00
2022-08-28T01:46:13.958Z,100.00
2022-08-28T01:48:44.303Z,100.00
2022-08-28T01:51:13.764Z,100.00
2022-08-28T01:53:45.327Z,100.00
2022-08-28T01:56:16.843Z,100.00
2022-08-28T01:58:47.183Z,100.00
2022-08-28T02:01:17.915Z,100.00
2022-08-28T02:03:45.897Z,100.00
2022-08-28T02:06:15.198Z,100.00
2022-08-28T02:08:43.092Z,100.00
2022-08-28T02:11:11.503Z,100.00
2022-08-28T02:13:41.097Z,100.00
2022-08-28T02:16:11.204Z,100.00
2022-08-28T02:18:39.189Z,100.00
2022-08-28T02:21:07.039Z,100.00
2022-08-28T02:23:34.892Z,100.00
2022-08-28T02:26:02.470Z,100.00
2022-08-28T02:28:30.284Z,100.00
2022-08-28T02:30:58.242Z,100.00
2022-08-28T02:33:27.846Z,100.00
2022-08-28T02:35:55.370Z,100.00
2022-08-28T02:38:23.223Z,100.00
2022-08-28T02:40:50.742Z,100.00
2022-08-28T02:43:18.240Z,100.00
2022-08-28T02:45:47.074Z,100.00
2022-08-28T02:48:17.172Z,100.00
2022-08-28T02:50:48.152Z,100.00
2022-08-28T02:53:16.054Z,100.00
2022-08-28T02:55:43.788Z,100.00
2022-08-28T02:58:12.131Z,100.00
2022-08-28T03:00:40.171Z,100.00
2022-08-28T03:03:08.000Z,100.00
2022-08-28T03:05:35.247Z,100.00
2022-08-28T03:08:05.833Z,100.00
2022-08-28T03:10:34.117Z,100.00
2022-08-28T03:13:01.948Z,100.00
2022-08-28T03:15:29.227Z,100.00
2022-08-28T03:17:56.470Z,100.00
2022-08-28T03:20:23.827Z,100.00
2022-08-28T03:22:51.342Z,100.00
2022-08-28T03:25:21.214Z,100.00
2022-08-28T03:27:48.942Z,100.00
2022-08-28T03:30:17.427Z,100.00
2022-08-28T03:32:44.956Z,100.00
2022-08-28T03:35:13.752Z,100.00
2022-08-28T03:37:41.602Z,100.00
2022-08-28T03:40:11.396Z,100.00
2022-08-28T03:42:41.475Z,100.00
2022-08-28T03:45:10.249Z,100.00
2022-08-28T03:47:38.749Z,100.00
2022-08-28T03:50:09.940Z,100.00
2022-08-28T03:52:39.643Z,100.00
2022-08-28T03:55:09.299Z,100.00
2022-08-28T03:57:36.889Z,100.00
2022-08-28T04:00:11.705Z,100.00
2022-08-28T04:02:39.514Z,100.00
2022-08-28T04:05:08.201Z,100.00
2022-08-28T04:07:37.427Z,100.00
2022-08-28T04:10:06.561Z,100.00
2022-08-28T04:12:35.312Z,100.00
2022-08-28T04:15:02.904Z,100.00
2022-08-28T04:17:33.011Z,100.00
2022-08-28T04:20:00.792Z,100.00
2022-08-28T04:22:29.908Z,100.00
2022-08-28T04:24:57.123Z,100.00
2022-08-28T04:27:24.638Z,100.00
2022-08-28T04:29:51.892Z,100.00
2022-08-28T04:32:19.419Z,100.00
2022-08-28T04:34:48.685Z,100.00
2022-08-28T04:37:16.004Z,100.00
2022-08-28T04:39:43.854Z,100.00
2022-08-28T04:42:11.168Z,100.00
2022-08-28T04:44:39.185Z,100.00
2022-08-28T04:47:07.416Z,100.00
2022-08-28T04:49:36.191Z,100.00
2022-08-28T04:52:06.889Z,100.00
2022-08-28T04:54:35.377Z,100.00
2022-08-28T04:57:02.891Z,100.00
2022-08-28T04:59:34.233Z,100.00
2022-08-28T05:02:01.530Z,100.00
2022-08-28T05:04:29.273Z,100.00
2022-08-28T05:06:57.120Z,100.00
2022-08-28T05:09:26.550Z,100.00
2022-08-28T05:11:54.402Z,100.00
2022-08-28T05:14:22.343Z,100.00
2022-08-28T05:16:52.354Z,100.00
2022-08-28T05:19:21.530Z,100.00
2022-08-28T05:21:49.086Z,100.00
2022-08-28T05:24:16.467Z,100.00
2022-08-28T05:26:48.207Z,100.00
2022-08-28T05:29:17.281Z,100.00
2022-08-28T05:31:46.235Z,100.00
2022-08-28T05:34:14.921Z,100.00
2022-08-28T05:36:42.451Z,100.00
2022-08-28T05:39:11.458Z,100.00
2022-08-28T05:41:41.818Z,100.00
2022-08-28T05:44:12.538Z,100.00
2022-08-28T05:46:42.059Z,100.00
2022-08-28T05:49:10.402Z,100.00
2022-08-28T05:51:40.574Z,100.00
2022-08-28T05:54:08.463Z,100.00
2022-08-28T05:56:38.534Z,100.00
2022-08-28T05:59:09.280Z,100.00
2022-08-28T06:01:40.226Z,100.00
2022-08-28T06:04:10.120Z,100.00
2022-08-28T06:06:38.287Z,100.00
2022-08-28T06:09:09.312Z,100.00
2022-08-28T06:11:36.990Z,100.00
2022-08-28T06:14:07.874Z,100.00
2022-08-28T06:16:38.747Z,100.00
2022-08-28T06:19:06.736Z,100.00
2022-08-28T06:21:34.057Z,100.00
2022-08-28T06:24:01.838Z,100.00
2022-08-28T06:26:29.224Z,100.00
2022-08-28T06:29:00.686Z,100.00
2022-08-28T06:31:33.055Z,100.00
2022-08-28T06:34:03.667Z,100.00
2022-08-28T06:36:33.774Z,100.00
2022-08-28T06:39:02.664Z,100.00
2022-08-28T06:41:32.331Z,100.00
2022-08-28T06:44:00.128Z,100.00
2022-08-28T06:46:28.549Z,100.00
2022-08-28T06:48:55.653Z,100.00
2022-08-28T06:51:25.192Z,100.00
2022-08-28T06:53:52.622Z,100.00
2022-08-28T06:56:26.226Z,100.00
2022-08-28T06:58:56.072Z,100.00
2022-08-28T07:01:25.307Z,100.00
2022-08-28T07:03:54.601Z,100.00
2022-08-28T07:06:25.146Z,100.00
2022-08-28T07:08:52.633Z,100.00
2022-08-28T07:11:26.300Z,100.00
2022-08-28T07:13:55.024Z,100.00
2022-08-28T07:16:24.542Z,100.00
2022-08-28T07:18:51.846Z,100.00
2022-08-28T07:21:19.512Z,100.00
2022-08-28T07:23:50.061Z,100.00
2022-08-28T07:26:19.574Z,100.00
2022-08-28T07:28:46.713Z,100.00
2022-08-28T07:31:16.369Z,100.00
2022-08-28T07:33:43.577Z,100.00
2022-08-28T07:36:16.086Z,100.00
2022-08-28T07:38:59.980Z,100.00
2022-08-28T07:41:30.122Z,100.00
2022-08-28T07:43:58.242Z,100.00
2022-08-28T07:46:25.200Z,100.00
2022-08-28T07:48:52.244Z,100.00
2022-08-28T07:51:19.501Z,100.00
2022-08-28T07:53:47.103Z,100.00
2022-08-28T07:56:16.800Z,100.00
2022-08-28T07:58:44.976Z,100.00
2022-08-28T08:01:12.131Z,100.00
2022-08-28T08:03:39.325Z,100.00
2022-08-28T08:06:07.895Z,100.00
2022-08-28T08:08:35.691Z,100.00
2022-08-28T08:11:06.834Z,100.00
2022-08-28T08:13:40.954Z,100.00
2022-08-28T08:16:11.722Z,100.00
2022-08-28T08:18:39.841Z,100.00
2022-08-28T08:21:09.200Z,100.00
2022-08-28T08:23:37.160Z,100.00
2022-08-28T08:26:06.704Z,100.00
2022-08-28T08:28:36.362Z,100.00
2022-08-28T08:31:09.742Z,100.00
2022-08-28T08:33:38.993Z,100.00
2022-08-28T08:36:07.564Z,100.00
2022-08-28T08:38:35.665Z,100.00
2022-08-28T08:41:20.565Z,100.00
2022-08-28T08:43:50.882Z,100.00
2022-08-28T08:46:26.620Z,100.00
2022-08-28T08:48:56.151Z,100.00
2022-08-28T08:51:36.139Z,100.00
2022-08-28T08:54:07.880Z,100.00
2022-08-28T08:56:35.651Z,100.00
2022-08-28T08:59:07.381Z,100.00
2022-08-28T09:01:42.274Z,100.00
2022-08-28T09:04:21.487Z,100.00
2022-08-28T09:06:52.281Z,100.00
2022-08-28T09:09:27.218Z,100.00
2022-08-28T09:11:57.217Z,100.00
2022-08-28T09:14:36.622Z,100.00
2022-08-28T09:17:07.126Z,100.00
2022-08-28T09:19:35.190Z,100.00
2022-08-28T09:22:03.537Z,100.00
2022-08-28T09:24:34.004Z,100.00
2022-08-28T09:27:03.525Z,100.00
2022-08-28T09:29:34.624Z,100.00
2022-08-28T09:32:22.068Z,100.00
2022-08-28T09:35:07.306Z,100.00
2022-08-28T09:37:36.142Z,100.00
2022-08-28T09:40:25.433Z,100.00
2022-08-28T09:43:05.443Z,100.00
2022-08-28T09:45:32.716Z,100.00
2022-08-28T09:48:02.496Z,100.00
2022-08-28T09:50:35.480Z,100.00
2022-08-28T09:53:21.225Z,100.00
2022-08-28T09:55:59.820Z,100.00
2022-08-28T09:58:34.141Z,100.00
2022-08-28T10:01:10.692Z,100.00
2022-08-28T10:03:48.636Z,100.00
2022-08-28T10:06:22.539Z,100.00
2022-08-28T10:09:04.959Z,100.00
2022-08-28T10:11:44.419Z,100.00
2022-08-28T10:14:35.716Z,100.00
2022-08-28T10:17:15.050Z,100.00
2022-08-28T10:20:00.528Z,100.00
2022-08-28T10:22:40.214Z,100.00
2022-08-28T10:25:21.449Z,100.00
2022-08-28T10:28:04.322Z,100.00
2022-08-28T10:30:39.190Z,100.00
2022-08-28T10:33:24.742Z,100.00
2022-08-28T10:36:03.992Z,100.00
2022-08-28T10:38:39.218Z,100.00
2022-08-28T10:41:11.202Z,100.00
2022-08-28T10:43:46.080Z,100.00
2022-08-28T10:46:24.127Z,100.00
2022-08-28T10:49:00.735Z,100.00
2022-08-28T10:51:36.313Z,100.00
2022-08-28T10:54:13.005Z,100.00
2022-08-28T10:56:46.557Z,100.00
2022-08-28T10:59:24.306Z,100.00
2022-08-28T11:01:52.931Z,100.00
2022-08-28T11:04:25.364Z,100.00
2022-08-28T11:06:58.803Z,100.00
2022-08-28T11:09:33.269Z,100.00
2022-08-28T11:12:03.695Z,100.00
2022-08-28T11:14:35.472Z,100.00
2022-08-28T11:17:09.295Z,100.00
2022-08-28T11:19:57.624Z,100.00
2022-08-28T11:22:29.249Z,100.00
2022-08-28T11:25:09.794Z,100.00
2022-08-28T11:27:39.664Z,100.00
2022-08-28T11:30:33.212Z,100.00
2022-08-28T11:33:40.840Z,100.00
2022-08-28T11:36:11.802Z,100.00
2022-08-28T11:39:16.087Z,100.00
2022-08-28T11:42:28.975Z,100.00
2022-08-28T11:44:56.796Z,100.00
2022-08-28T11:47:42.583Z,100.00
2022-08-28T11:50:18.723Z,100.00
2022-08-28T11:53:17.297Z,100.00
2022-08-28T11:56:07.460Z,100.00
2022-08-28T11:58:44.280Z,100.00
2022-08-28T12:01:13.834Z,100.00
2022-08-28T12:03:44.807Z,100.00
2022-08-28T12:06:13.281Z,100.00
2022-08-28T12:09:04.329Z,100.00
2022-08-28T12:11:55.673Z,100.00
2022-08-28T12:15:02.821Z,99.79
2022-08-28T12:17:52.205Z,100.00
2022-08-28T12:20:41.119Z,100.00
2022-08-28T12:23:40.069Z,100.00
2022-08-28T12:26:11.854Z,100.00
2022-08-28T12:28:57.119Z,100.00
2022-08-28T12:31:55.095Z,96.16
2022-08-28T12:34:33.456Z,100.00
2022-08-28T12:37:03.200Z,100.00
2022-08-28T12:39:33.109Z,100.00
2022-08-28T12:42:02.779Z,100.00
2022-08-28T12:44:33.182Z,100.00
2022-08-28T12:47:02.591Z,100.00
2022-08-28T12:49:33.608Z,100.00
2022-08-28T12:52:16.935Z,100.00
2022-08-28T12:54:45.640Z,100.00
2022-08-28T12:57:16.329Z,97.27
2022-08-28T12:59:47.389Z,94.10
2022-08-28T13:02:25.172Z,97.93
2022-08-28T13:04:56.322Z,99.77
2022-08-28T13:07:30.404Z,96.72
2022-08-28T13:10:01.225Z,93.22
2022-08-28T13:12:54.531Z,96.12
2022-08-28T13:15:54.071Z,94.71
2022-08-28T13:18:43.303Z,97.12
2022-08-28T13:21:33.397Z,92.63
2022-08-28T13:24:16.932Z,90.11
2022-08-28T13:26:44.664Z,90.13
2022-08-28T13:29:18.640Z,86.84
2022-08-28T13:31:57.262Z,87.85
2022-08-28T13:34:26.747Z,85.87
2022-08-28T13:36:56.504Z,84.71
2022-08-28T13:39:24.329Z,84.91
2022-08-28T13:41:55.052Z,84.24
2022-08-28T13:44:30.510Z,87.46
2022-08-28T13:47:00.400Z,78.37
2022-08-28T13:49:27.845Z,84.30
2022-08-28T13:51:57.292Z,79.22
2022-08-28T13:54:25.999Z,78.67
2022-08-28T13:56:56.132Z,82.38
2022-08-28T13:59:23.917Z,83.15
2022-08-28T14:01:55.712Z,77.18
2022-08-28T14:04:25.426Z,78.52
2022-08-28T14:06:52.953Z,75.56
2022-08-28T14:09:20.764Z,79.61
2022-08-28T14:11:49.959Z,78.76
2022-08-28T14:14:19.077Z,80.00
2022-08-28T14:16:46.875Z,84.72
2022-08-28T14:19:14.730Z,77.24
2022-08-28T14:21:46.408Z,76.18
2022-08-28T14:24:14.558Z,77.01
2022-08-28T14:26:42.101Z,80.51
2022-08-28T14:29:11.173Z,81.68
2022-08-28T14:31:40.408Z,83.18
2022-08-28T14:34:09.739Z,84.77
2022-08-28T14:36:37.711Z,85.64
2022-08-28T14:39:10.240Z,86.31
2022-08-28T14:41:38.441Z,72.37
2022-08-28T14:44:06.216Z,68.87
2022-08-28T14:46:36.239Z,71.28
2022-08-28T14:49:06.282Z,73.65
2022-08-28T14:51:36.156Z,74.21
2022-08-28T14:54:05.574Z,77.84
2022-08-28T14:56:35.990Z,89.48
2022-08-28T14:59:06.723Z,97.76
2022-08-28T15:01:40.933Z,100.00
2022-08-28T15:04:12.877Z,100.00
2022-08-28T15:06:42.728Z,100.00
2022-08-28T15:09:10.578Z,100.00
2022-08-28T15:11:40.638Z,100.00
2022-08-28T15:14:07.983Z,100.00
2022-08-28T15:16:38.302Z,100.00
2022-08-28T15:19:08.709Z,100.00
2022-08-28T15:21:38.128Z,100.00
2022-08-28T15:24:08.196Z,100.00
2022-08-28T15:26:36.358Z,100.00
2022-08-28T15:29:05.460Z,100.00
2022-08-28T15:31:35.361Z,100.00
2022-08-28T15:34:04.570Z,100.00
2022-08-28T15:36:34.447Z,100.00
2022-08-28T15:39:02.858Z,100.00
2022-08-28T15:41:31.102Z,100.00
2022-08-28T15:44:01.126Z,100.00
2022-08-28T15:46:32.838Z,100.00
2022-08-28T15:49:01.310Z,100.00
2022-08-28T15:51:28.826Z,100.00
2022-08-28T15:53:56.639Z,100.00
2022-08-28T15:56:24.153Z,100.00
2022-08-28T15:58:51.609Z,100.00
2022-08-28T16:01:19.625Z,100.00
2022-08-28T16:03:49.613Z,100.00
2022-08-28T16:06:18.938Z,100.00
2022-08-28T16:08:46.918Z,100.00
2022-08-28T16:11:16.458Z,100.00
2022-08-28T16:13:43.564Z,100.00
2022-08-28T16:16:10.755Z,100.00
2022-08-28T16:18:38.603Z,100.00
2022-08-28T16:21:08.862Z,100.00
2022-08-28T16:23:36.956Z,100.00
2022-08-28T16:26:06.856Z,100.00
2022-08-28T16:28:34.404Z,100.00
2022-08-28T16:31:04.866Z,100.00
2022-08-28T16:33:35.084Z,100.00
2022-08-28T16:36:10.071Z,100.00
2022-08-28T16:38:39.415Z,100.00
2022-08-28T16:41:11.601Z,100.00
2022-08-28T16:43:39.408Z,100.00
2022-08-28T16:46:11.034Z,100.00
2022-08-28T16:48:38.863Z,100.00
2022-08-28T16:51:08.643Z,100.00
2022-08-28T16:53:36.239Z,100.00
2022-08-28T16:56:04.950Z,100.00
2022-08-28T16:58:32.152Z,100.00
2022-08-28T17:00:59.497Z,100.00
2022-08-28T17:03:26.979Z,100.00
2022-08-28T17:05:56.106Z,100.00
2022-08-28T17:08:24.917Z,100.00
2022-08-28T17:10:52.479Z,100.00
2022-08-28T17:13:20.093Z,100.00
2022-08-28T17:15:47.518Z,100.00
2022-08-28T17:18:15.079Z,100.00
2022-08-28T17:20:42.890Z,100.00
2022-08-28T17:23:10.077Z,100.00
2022-08-28T17:25:38.994Z,100.00
2022-08-28T17:28:07.132Z,100.00
2022-08-28T17:30:34.447Z,100.00
2022-08-28T17:33:01.708Z,100.00
2022-08-28T17:35:28.970Z,100.00
2022-08-28T17:37:56.685Z,100.00
2022-08-28T17:40:25.319Z,100.00
2022-08-28T17:42:53.931Z,100.00
2022-08-28T17:45:21.301Z,100.00
2022-08-28T17:47:48.758Z,100.00
2022-08-28T17:50:16.438Z,100.00
2022-08-28T17:52:44.146Z,100.00
2022-08-28T17:55:12.251Z,100.00
2022-08-28T17:57:40.756Z,100.00
2022-08-28T18:00:13.307Z,100.00
2022-08-28T18:02:41.490Z,100.00
2022-08-28T18:05:10.715Z,100.00
2022-08-28T18:07:39.306Z,100.00
2022-08-28T18:10:09.251Z,100.00
2022-08-28T18:12:37.632Z,100.00
2022-08-28T18:15:06.721Z,100.00
2022-08-28T18:17:37.230Z,100.00
2022-08-28T18:20:09.278Z,100.00
2022-08-28T18:22:37.681Z,100.00
2022-08-28T18:25:07.017Z,100.00
2022-08-28T18:27:35.072Z,100.00
2022-08-28T18:30:03.294Z,100.00
2022-08-28T18:32:31.659Z,100.00
2022-08-28T18:35:00.615Z,100.00
2022-08-28T18:37:28.253Z,100.00
2022-08-28T18:39:56.327Z,100.00
2022-08-28T18:42:24.594Z,100.00
2022-08-28T18:44:52.462Z,100.00
2022-08-28T18:47:20.143Z,100.00
2022-08-28T18:49:49.421Z,100.00
2022-08-28T18:52:20.003Z,100.00
2022-08-28T18:54:49.931Z,100.00
2022-08-28T18:57:18.427Z,100.00
2022-08-28T18:59:48.138Z,100.00
2022-08-28T19:02:16.831Z,100.00
2022-08-28T19:04:44.827Z,100.00
2022-08-28T19:07:14.253Z,100.00
2022-08-28T19:09:44.301Z,100.00
2022-08-28T19:12:12.841Z,100.00
2022-08-28T19:14:40.524Z,100.00
2022-08-28T19:17:07.993Z,100.00
2022-08-28T19:19:36.863Z,100.00
2022-08-28T19:22:05.281Z,100.00
2022-08-28T19:24:33.928Z,100.00
2022-08-28T19:27:04.245Z,100.00
2022-08-28T19:29:32.631Z,100.00
2022-08-28T19:32:01.140Z,100.00
2022-08-28T19:34:29.115Z,100.00
2022-08-28T19:36:56.671Z,100.00
2022-08-28T19:39:24.782Z,100.00
2022-08-28T19:41:52.620Z,100.00
2022-08-28T19:44:22.108Z,100.00
2022-08-28T19:46:50.529Z,100.00
2022-08-28T19:49:18.483Z,100.00
2022-08-28T19:51:46.885Z,100.00
2022-08-28T19:54:14.589Z,100.00
2022-08-28T19:56:42.653Z,100.00
2022-08-28T19:59:11.392Z,100.00
2022-08-28T20:01:42.842Z,100.00
2022-08-28T20:04:11.476Z,100.00
2022-08-28T20:06:39.066Z,100.00
2022-08-28T20:09:12.031Z,100.00
2022-08-28T20:11:41.442Z,100.00
2022-08-28T20:14:09.281Z,100.00
2022-08-28T20:16:38.633Z,100.00
2022-08-28T20:19:10.376Z,100.00
2022-08-28T20:21:40.331Z,100.00
2022-08-28T20:24:11.199Z,100.00
2022-08-28T20:26:38.642Z,100.00
2022-08-28T20:29:07.809Z,100.00
2022-08-28T20:31:35.533Z,100.00
2022-08-28T20:34:03.365Z,100.00
2022-08-28T20:36:34.028Z,100.00
2022-08-28T20:39:01.743Z,100.00
2022-08-28T20:41:29.123Z,100.00
2022-08-28T20:43:56.633Z,100.00
2022-08-28T20:46:24.117Z,100.00
2022-08-28T20:48:51.642Z,100.00
2022-08-28T20:51:19.199Z,100.00
2022-08-28T20:53:48.005Z,100.00
2022-08-28T20:56:16.168Z,100.00
2022-08-28T20:58:44.017Z,100.00
2022-08-28T21:01:13.182Z,100.00
2022-08-28T21:03:40.617Z,100.00
2022-08-28T21:06:08.523Z,100.00
2022-08-28T21:08:36.035Z,100.00
2022-08-28T21:11:05.762Z,100.00
2022-08-28T21:13:33.673Z,100.00
2022-08-28T21:16:04.458Z,100.00
2022-08-28T21:18:31.712Z,100.00
2022-08-28T21:20:58.988Z,100.00
2022-08-28T21:23:26.252Z,100.00
2022-08-28T21:25:53.587Z,100.00
2022-08-28T21:28:22.359Z,100.00
2022-08-28T21:30:49.864Z,100.00
2022-08-28T21:33:17.371Z,100.00
2022-08-28T21:35:45.493Z,100.00
2022-08-28T21:38:13.102Z,100.00
2022-08-28T21:40:40.555Z,100.00
2022-08-28T21:43:08.313Z,100.00
2022-08-28T21:45:37.238Z,100.00
2022-08-28T21:48:04.821Z,100.00
2022-08-28T21:50:32.094Z,100.00
2022-08-28T21:52:59.401Z,100.00
2022-08-28T21:55:26.872Z,100.00
2022-08-28T21:57:54.100Z,100.00
2022-08-28T22:00:23.509Z,100.00
2022-08-28T22:02:52.690Z,100.00
2022-08-28T22:05:20.202Z,100.00
2022-08-28T22:07:47.472Z,100.00
2022-08-28T22:10:15.189Z,100.00
2022-08-28T22:12:42.987Z,100.00
2022-08-28T22:15:11.192Z,100.00
2022-08-28T22:17:38.567Z,100.00
2022-08-28T22:20:10.594Z,100.00
2022-08-28T22:22:38.044Z,100.00
2022-08-28T22:25:06.093Z,100.00
2022-08-28T22:27:33.924Z,100.00
2022-08-28T22:30:01.440Z,100.00
2022-08-28T22:32:28.946Z,100.00
2022-08-28T22:34:56.810Z,100.00
2022-08-28T22:37:25.444Z,100.00
2022-08-28T22:39:52.799Z,100.00
2022-08-28T22:42:20.314Z,100.00
2022-08-28T22:44:47.810Z,100.00
2022-08-28T22:47:15.351Z,100.00
2022-08-28T22:49:46.703Z,100.00
2022-08-28T22:52:13.802Z,100.00
2022-08-28T22:54:43.495Z,100.00
2022-08-28T22:57:11.209Z,100.00
2022-08-28T22:59:38.478Z,100.00
2022-08-28T23:02:05.946Z,100.00
2022-08-28T23:04:33.497Z,100.00
2022-08-28T23:07:00.957Z,100.00
2022-08-28T23:09:28.434Z,100.00
2022-08-28T23:12:00.243Z,100.00
2022-08-28T23:14:27.813Z,100.00
2022-08-28T23:16:55.430Z,100.00
2022-08-28T23:19:23.686Z,100.00
2022-08-28T23:21:51.234Z,100.00
2022-08-28T23:24:19.054Z,100.00
2022-08-28T23:26:47.176Z,100.00
2022-08-28T23:29:15.979Z,100.00
2022-08-28T23:31:43.360Z,100.00
2022-08-28T23:34:10.893Z,100.00
2022-08-28T23:36:39.390Z,100.00
2022-08-28T23:39:10.570Z,100.00
2022-08-28T23:41:38.724Z,100.00
2022-08-28T23:44:08.973Z,100.00
2022-08-28T23:46:41.662Z,100.00
2022-08-28T23:49:10.278Z,100.00
2022-08-28T23:51:37.604Z,100.00
2022-08-28T23:54:04.970Z,100.00
2022-08-28T23:56:33.452Z,100.00
2022-08-28T23:59:01.160Z,100.00
